createdAt,value
2019-01-21T00:01:54.279Z,-3.48
2019-01-21T00:04:24.033Z,-3.48
2019-01-21T00:06:53.764Z,-3.69
2019-01-21T00:09:23.393Z,-3.54
2019-01-21T00:11:52.989Z,-3.56
2019-01-21T00:14:22.934Z,-3.65
2019-01-21T00:16:52.535Z,-3.60
2019-01-21T00:19:22.242Z,-3.58
2019-01-21T00:21:53.632Z,-3.66
2019-01-21T00:24:23.226Z,-3.61
2019-01-21T00:26:53.087Z,-3.70
2019-01-21T00:29:22.717Z,-3.77
2019-01-21T00:31:52.363Z,-3.78
2019-01-21T00:34:22.009Z,-3.80
2019-01-21T00:36:51.821Z,-3.88
2019-01-21T00:39:21.492Z,-3.92
2019-01-21T00:41:51.168Z,-3.97
2019-01-21T00:44:20.692Z,-3.91
2019-01-21T00:46:50.428Z,-4.00
2019-01-21T00:49:20.149Z,-3.97
2019-01-21T00:51:49.638Z,-3.96
2019-01-21T00:54:19.237Z,-4.00
2019-01-21T00:56:48.887Z,-3.95
2019-01-21T00:59:18.577Z,-3.83
2019-01-21T01:01:48.212Z,-3.80
2019-01-21T01:04:17.887Z,-4.08
2019-01-21T01:06:47.647Z,-4.15
2019-01-21T01:09:17.403Z,-3.94
2019-01-21T01:11:47.454Z,-4.04
2019-01-21T01:14:17.194Z,-4.00
2019-01-21T01:16:47.337Z,-3.85
2019-01-21T01:19:17.247Z,-3.74
2019-01-21T01:21:46.879Z,-3.69
2019-01-21T01:24:16.563Z,-3.90
2019-01-21T01:26:46.243Z,-4.04
2019-01-21T01:29:15.987Z,-3.99
2019-01-21T01:31:45.638Z,-4.07
2019-01-21T01:34:15.407Z,-4.00
2019-01-21T01:36:45.127Z,-4.10
2019-01-21T01:39:14.923Z,-4.24
2019-01-21T01:41:44.483Z,-4.16
2019-01-21T01:44:14.561Z,-4.05
2019-01-21T01:46:44.602Z,-4.06
2019-01-21T01:49:14.193Z,-4.23
2019-01-21T01:51:43.968Z,-4.24
2019-01-21T01:54:13.616Z,-4.31
2019-01-21T01:56:43.313Z,-4.19
2019-01-21T01:59:13.158Z,-4.40
2019-01-21T02:01:42.872Z,-4.30
2019-01-21T02:04:12.541Z,-4.21
2019-01-21T02:06:42.297Z,-4.27
2019-01-21T02:09:12.017Z,-4.27
2019-01-21T02:11:42.036Z,-4.26
2019-01-21T02:14:11.648Z,-4.23
2019-01-21T02:16:41.212Z,-4.23
2019-01-21T02:19:10.817Z,-4.25
2019-01-21T02:21:42.059Z,-4.19
2019-01-21T02:24:13.978Z,-4.19
2019-01-21T02:26:48.287Z,-4.29
2019-01-21T02:29:22.673Z,-4.25
2019-01-21T02:32:30.289Z,-4.26
2019-01-21T02:35:10.172Z,-4.33
2019-01-21T02:38:02.501Z,-4.30
2019-01-21T02:40:42.489Z,-4.23
2019-01-21T02:43:43.938Z,-4.24
2019-01-21T02:46:21.022Z,-4.05
2019-01-21T02:49:17.913Z,-4.11
2019-01-21T02:52:11.375Z,-4.12
2019-01-21T02:54:52.126Z,-4.11
2019-01-21T02:58:07.453Z,-4.22
2019-01-21T03:01:09.077Z,-4.12
2019-01-21T03:03:54.865Z,-4.19
2019-01-21T03:06:57.647Z,-4.25
2019-01-21T03:09:41.367Z,-4.24
2019-01-21T03:12:43.055Z,-4.29
2019-01-21T03:15:36.829Z,-4.35
2019-01-21T03:18:28.876Z,-4.27
2019-01-21T03:21:09.082Z,-4.18
2019-01-21T03:24:19.668Z,-4.19
2019-01-21T03:27:24.170Z,-4.31
2019-01-21T03:30:16.694Z,-4.20
2019-01-21T03:33:15.098Z,-4.32
2019-01-21T03:36:01.780Z,-4.45
2019-01-21T03:39:08.010Z,-4.42
2019-01-21T03:41:51.088Z,-4.38
2019-01-21T03:45:03.287Z,-4.53
2019-01-21T03:47:37.756Z,-4.44
2019-01-21T03:50:36.397Z,-4.48
2019-01-21T03:53:22.531Z,-4.52
2019-01-21T03:55:57.546Z,-4.60
2019-01-21T03:58:40.632Z,-4.60
2019-01-21T04:01:34.387Z,-4.43
2019-01-21T04:04:20.426Z,-4.52
2019-01-21T04:06:54.927Z,-4.57
2019-01-21T04:09:44.261Z,-4.56
2019-01-21T04:12:35.217Z,-4.48
2019-01-21T04:15:36.648Z,-4.63
2019-01-21T04:18:29.307Z,-4.57
2019-01-21T04:21:18.455Z,-4.64
2019-01-21T04:24:14.232Z,-4.75
2019-01-21T04:27:12.557Z,-4.58
2019-01-21T04:30:15.350Z,-4.52
2019-01-21T04:32:55.917Z,-4.64
2019-01-21T04:35:51.966Z,-4.55
2019-01-21T04:38:57.989Z,-4.54
2019-01-21T04:41:44.492Z,-4.59
2019-01-21T04:44:24.529Z,-4.58
2019-01-21T04:47:20.073Z,-4.58
2019-01-21T04:50:08.755Z,-4.54
2019-01-21T04:52:51.842Z,-4.59
2019-01-21T04:55:49.552Z,-4.46
2019-01-21T04:58:29.613Z,-4.48
2019-01-21T05:01:23.247Z,-4.52
2019-01-21T05:04:18.646Z,-4.54
2019-01-21T05:07:05.061Z,-4.69
2019-01-21T05:09:44.841Z,-4.60
2019-01-21T05:12:40.562Z,-4.70
2019-01-21T05:15:40.545Z,-4.62
2019-01-21T05:18:20.862Z,-4.58
2019-01-21T05:21:10.202Z,-4.50
2019-01-21T05:24:07.715Z,-4.48
2019-01-21T05:26:54.221Z,-4.66
2019-01-21T05:29:43.066Z,-4.59
2019-01-21T05:32:36.633Z,-4.45
2019-01-21T05:35:37.981Z,-4.48
2019-01-21T05:38:15.077Z,-4.55
2019-01-21T05:41:03.816Z,-4.69
2019-01-21T05:44:24.823Z,-4.60
2019-01-21T05:47:20.233Z,-4.56
2019-01-21T05:50:28.443Z,-4.58
2019-01-21T05:53:42.017Z,-4.58
2019-01-21T05:56:43.621Z,-4.54
2019-01-21T05:59:20.708Z,-4.66
2019-01-21T06:02:03.740Z,-4.65
2019-01-21T06:04:41.161Z,-4.48
2019-01-21T06:07:24.070Z,-4.55
2019-01-21T06:10:04.426Z,-4.54
2019-01-21T06:12:50.609Z,-4.73
2019-01-21T06:15:28.200Z,-4.58
2019-01-21T06:18:13.926Z,-4.73
2019-01-21T06:21:07.977Z,-4.80
2019-01-21T06:23:50.942Z,-4.58
2019-01-21T06:27:01.536Z,-4.59
2019-01-21T06:29:58.580Z,-4.64
2019-01-21T06:32:32.850Z,-4.63
2019-01-21T06:35:15.845Z,-4.53
2019-01-21T06:38:07.359Z,-4.56
2019-01-21T06:40:44.349Z,-4.52
2019-01-21T06:43:39.754Z,-4.54
2019-01-21T06:46:35.380Z,-4.56
2019-01-21T06:49:21.699Z,-4.54
2019-01-21T06:52:10.803Z,-4.55
2019-01-21T06:55:21.285Z,-4.61
2019-01-21T06:58:07.428Z,-4.54
2019-01-21T07:01:16.881Z,-4.65
2019-01-21T07:03:59.754Z,-4.71
2019-01-21T07:07:01.216Z,-4.80
2019-01-21T07:09:59.257Z,-4.79
2019-01-21T07:13:08.554Z,-4.85
2019-01-21T07:16:07.020Z,-4.81
2019-01-21T07:18:50.189Z,-4.92
2019-01-21T07:21:57.506Z,-4.89
2019-01-21T07:25:04.933Z,-4.90
2019-01-21T07:27:48.060Z,-4.90
2019-01-21T07:30:48.861Z,-4.76
2019-01-21T07:33:58.295Z,-4.68
2019-01-21T07:36:50.532Z,-4.75
2019-01-21T07:39:47.075Z,-4.79
2019-01-21T07:42:54.714Z,-4.52
2019-01-21T07:45:31.715Z,-4.51
2019-01-21T07:48:17.624Z,-4.53
2019-01-21T07:51:21.656Z,-4.46
2019-01-21T07:54:14.040Z,-4.30
2019-01-21T07:57:16.954Z,-4.20
2019-01-21T07:59:59.789Z,-4.09
2019-01-21T08:03:08.706Z,-4.23
2019-01-21T08:05:49.021Z,-4.26
2019-01-21T08:08:59.773Z,-4.28
2019-01-21T08:11:46.184Z,-4.69
2019-01-21T08:14:23.452Z,-4.64
2019-01-21T08:17:31.341Z,-4.69
2019-01-21T08:20:23.240Z,-4.82
2019-01-21T08:23:30.748Z,-4.44
2019-01-21T08:26:05.071Z,-4.39
2019-01-21T08:28:53.507Z,-4.06
2019-01-21T08:31:56.583Z,-4.03
2019-01-21T08:34:39.436Z,-4.06
2019-01-21T08:37:39.230Z,-3.66
2019-01-21T08:40:45.660Z,-3.84
2019-01-21T08:43:50.080Z,-3.30
2019-01-21T08:46:36.190Z,-3.29
2019-01-21T08:49:22.181Z,-3.35
2019-01-21T08:52:18.876Z,-3.17
2019-01-21T08:55:29.718Z,-3.11
2019-01-21T08:58:23.752Z,-3.04
2019-01-21T09:01:25.377Z,-2.81
2019-01-21T09:04:26.599Z,-2.61
2019-01-21T09:07:17.689Z,-2.50
2019-01-21T09:10:00.733Z,-2.40
2019-01-21T09:13:08.253Z,-2.38
2019-01-21T09:15:57.220Z,-2.13
2019-01-21T09:18:49.748Z,-2.11
2019-01-21T09:21:41.905Z,-2.14
2019-01-21T09:24:22.025Z,-1.84
2019-01-21T09:27:14.355Z,-1.71
2019-01-21T09:29:54.668Z,-1.66
2019-01-21T09:32:49.740Z,-1.72
2019-01-21T09:35:38.884Z,-1.67
2019-01-21T09:38:22.169Z,-1.86
2019-01-21T09:41:24.938Z,-1.84
2019-01-21T09:44:02.283Z,-1.82
2019-01-21T09:46:44.133Z,-1.73
2019-01-21T09:49:12.202Z,-1.65
2019-01-21T09:51:44.875Z,-1.65
2019-01-21T09:54:14.801Z,-1.33
2019-01-21T09:56:44.664Z,-1.26
2019-01-21T09:59:14.330Z,-1.07
2019-01-21T10:01:43.954Z,-1.27
2019-01-21T10:04:18.291Z,-1.43
2019-01-21T10:06:51.952Z,-1.32
2019-01-21T10:09:35.469Z,-0.90
2019-01-21T10:12:32.913Z,-1.58
2019-01-21T10:15:16.510Z,-1.34
2019-01-21T10:18:10.302Z,-1.39
2019-01-21T10:21:29.577Z,-1.21
2019-01-21T10:24:30.932Z,-1.13
2019-01-21T10:27:14.201Z,-1.38
2019-01-21T10:30:07.659Z,-0.70
2019-01-21T10:33:19.932Z,-1.15
2019-01-21T10:36:12.454Z,-1.03
2019-01-21T10:39:07.832Z,-0.72
2019-01-21T10:42:06.443Z,-0.62
2019-01-21T10:44:52.338Z,-0.47
2019-01-21T10:47:38.581Z,-1.12
2019-01-21T10:50:34.238Z,-1.10
2019-01-21T10:53:38.622Z,-1.20
2019-01-21T10:56:15.916Z,-1.35
2019-01-21T10:59:14.560Z,-1.33
2019-01-21T11:02:26.684Z,-1.33
2019-01-21T11:05:01.106Z,-1.27
2019-01-21T11:08:09.837Z,-0.67
2019-01-21T11:11:04.268Z,-0.95
2019-01-21T11:13:44.378Z,-0.47
2019-01-21T11:16:29.654Z,-0.42
2019-01-21T11:19:28.189Z,-0.69
2019-01-21T11:22:02.419Z,-1.07
2019-01-21T11:24:54.569Z,-0.49
2019-01-21T11:27:46.537Z,-0.48
2019-01-21T11:30:23.653Z,-0.42
2019-01-21T11:33:28.277Z,-0.07
2019-01-21T11:36:35.198Z,-0.29
2019-01-21T11:39:40.979Z,0.16
2019-01-21T11:42:54.697Z,-0.25
2019-01-21T11:45:58.165Z,-0.58
2019-01-21T11:48:47.633Z,-0.02
2019-01-21T11:51:21.997Z,-0.44
2019-01-21T11:54:04.844Z,-0.26
2019-01-21T11:56:48.311Z,-0.21
2019-01-21T11:59:39.222Z,0.07
2019-01-21T12:02:30.135Z,0.06
2019-01-21T12:05:34.782Z,-0.17
2019-01-21T12:08:24.120Z,-0.02
2019-01-21T12:11:07.149Z,0.22
2019-01-21T12:14:00.987Z,0.55
2019-01-21T12:16:59.298Z,0.15
2019-01-21T12:19:45.674Z,0.30
2019-01-21T12:22:29.103Z,0.24
2019-01-21T12:25:03.339Z,0.50
2019-01-21T12:28:01.785Z,0.32
2019-01-21T12:30:39.010Z,0.26
2019-01-21T12:33:35.897Z,0.12
2019-01-21T12:36:16.738Z,0.24
2019-01-21T12:39:03.354Z,0.20
2019-01-21T12:41:51.979Z,0.69
2019-01-21T12:44:56.093Z,0.67
2019-01-21T12:48:00.281Z,0.16
2019-01-21T12:50:55.827Z,0.41
2019-01-21T12:53:57.216Z,0.67
2019-01-21T12:56:58.334Z,0.17
2019-01-21T12:59:49.937Z,0.68
2019-01-21T13:02:27.072Z,0.62
2019-01-21T13:05:22.805Z,0.67
2019-01-21T13:07:59.791Z,0.46
2019-01-21T13:10:36.848Z,0.67
2019-01-21T13:13:33.911Z,0.69
2019-01-21T13:16:20.010Z,0.77
2019-01-21T13:19:26.000Z,0.75
2019-01-21T13:22:25.923Z,0.76
2019-01-21T13:25:20.626Z,0.19
2019-01-21T13:28:00.952Z,0.61
2019-01-21T13:31:05.296Z,0.60
2019-01-21T13:33:58.845Z,0.59
2019-01-21T13:36:51.147Z,0.69
2019-01-21T13:39:53.942Z,0.70
2019-01-21T13:42:28.331Z,0.74
2019-01-21T13:45:17.751Z,0.46
2019-01-21T13:48:00.821Z,0.71
2019-01-21T13:50:47.011Z,0.87
2019-01-21T13:53:43.902Z,0.83
2019-01-21T13:56:36.008Z,0.83
2019-01-21T13:59:25.284Z,0.90
2019-01-21T14:02:05.646Z,0.80
2019-01-21T14:04:57.857Z,0.72
2019-01-21T14:07:47.105Z,0.83
2019-01-21T14:10:39.523Z,0.84
2019-01-21T14:13:26.484Z,1.01
2019-01-21T14:16:22.052Z,0.83
2019-01-21T14:19:11.389Z,0.90
2019-01-21T14:22:14.215Z,0.77
2019-01-21T14:24:56.372Z,0.64
2019-01-21T14:27:54.205Z,0.87
2019-01-21T14:30:37.362Z,0.91
2019-01-21T14:33:20.760Z,0.91
2019-01-21T14:36:00.737Z,0.97
2019-01-21T14:38:51.601Z,0.81
2019-01-21T14:41:28.906Z,0.65
2019-01-21T14:44:41.219Z,0.54
2019-01-21T14:47:36.553Z,0.70
2019-01-21T14:50:16.572Z,0.54
2019-01-21T14:53:15.148Z,0.63
2019-01-21T14:56:01.073Z,0.43
2019-01-21T14:58:47.567Z,0.41
2019-01-21T15:01:25.000Z,0.60
2019-01-21T15:04:25.223Z,0.33
2019-01-21T15:07:02.562Z,0.34
2019-01-21T15:10:14.690Z,0.32
2019-01-21T15:13:07.237Z,0.33
2019-01-21T15:15:47.307Z,0.22
2019-01-21T15:18:45.720Z,0.19
2019-01-21T15:21:39.644Z,0.23
2019-01-21T15:24:25.422Z,0.06
2019-01-21T15:27:07.968Z,-0.06
2019-01-21T15:29:48.097Z,0.11
2019-01-21T15:32:49.356Z,-0.17
2019-01-21T15:35:52.154Z,0.24
2019-01-21T15:38:51.619Z,0.21
2019-01-21T15:41:31.470Z,-0.11
2019-01-21T15:44:17.826Z,0.09
2019-01-21T15:47:03.789Z,0.07
2019-01-21T15:49:41.066Z,-0.19
2019-01-21T15:52:27.029Z,-0.01
2019-01-21T15:55:19.351Z,-0.17
2019-01-21T15:58:18.955Z,-0.21
2019-01-21T16:01:09.271Z,-0.26
2019-01-21T16:03:58.500Z,-0.29
2019-01-21T16:06:44.362Z,-0.40
2019-01-21T16:09:39.395Z,-0.43
2019-01-21T16:12:53.028Z,-0.34
2019-01-21T16:16:00.326Z,-0.62
2019-01-21T16:18:49.495Z,-0.34
2019-01-21T16:21:50.072Z,-0.40
2019-01-21T16:24:43.797Z,-0.31
2019-01-21T16:27:39.136Z,-0.41
2019-01-21T16:30:34.225Z,-0.43
2019-01-21T16:33:17.104Z,-0.64
2019-01-21T16:35:57.155Z,-0.49
2019-01-21T16:38:26.917Z,-0.57
2019-01-21T16:41:30.916Z,-0.61
2019-01-21T16:44:00.651Z,-0.47
2019-01-21T16:46:30.302Z,-0.62
2019-01-21T16:49:00.019Z,-0.65
2019-01-21T16:51:29.886Z,-0.73
2019-01-21T16:53:59.589Z,-0.84
2019-01-21T16:56:29.251Z,-0.88
2019-01-21T16:58:59.051Z,-0.86
2019-01-21T17:01:28.556Z,-0.84
2019-01-21T17:03:58.202Z,-0.89
2019-01-21T17:06:27.957Z,-0.80
2019-01-21T17:08:57.661Z,-0.83
2019-01-21T17:11:27.175Z,-0.63
2019-01-21T17:13:57.030Z,-0.73
2019-01-21T17:16:26.596Z,-0.60
2019-01-21T17:18:56.537Z,-0.72
2019-01-21T17:21:27.097Z,-0.77
2019-01-21T17:23:56.978Z,-0.69
2019-01-21T17:26:26.938Z,-0.66
2019-01-21T17:28:56.729Z,-0.74
2019-01-21T17:31:26.419Z,-0.57
2019-01-21T17:33:56.081Z,-0.65
2019-01-21T17:36:25.663Z,-0.65
2019-01-21T17:38:55.544Z,-0.91
2019-01-21T17:41:25.365Z,-0.92
2019-01-21T17:43:55.234Z,-0.69
2019-01-21T17:46:25.001Z,-0.63
2019-01-21T17:48:54.987Z,-0.76
2019-01-21T17:51:24.752Z,-0.70
2019-01-21T17:53:55.048Z,-0.49
2019-01-21T17:56:24.838Z,-0.46
2019-01-21T17:58:55.434Z,-0.62
2019-01-21T18:01:25.468Z,-0.56
2019-01-21T18:03:55.621Z,-0.61
2019-01-21T18:06:25.186Z,-0.63
2019-01-21T18:08:55.251Z,-0.62
2019-01-21T18:11:24.926Z,-0.55
2019-01-21T18:13:54.898Z,-0.61
2019-01-21T18:16:24.466Z,-0.59
2019-01-21T18:18:54.220Z,-0.56
2019-01-21T18:21:23.871Z,-0.51
2019-01-21T18:23:53.587Z,-0.46
2019-01-21T18:26:23.296Z,-0.59
2019-01-21T18:28:53.236Z,-0.47
2019-01-21T18:31:22.905Z,-0.63
2019-01-21T18:33:52.708Z,-0.55
2019-01-21T18:36:22.556Z,-0.50
2019-01-21T18:38:52.277Z,-0.31
2019-01-21T18:41:26.204Z,-0.33
2019-01-21T18:43:56.470Z,-0.32
2019-01-21T18:46:26.218Z,-0.40
2019-01-21T18:48:55.860Z,-0.30
2019-01-21T18:51:27.370Z,-0.24
2019-01-21T18:53:57.107Z,-0.20
2019-01-21T18:56:26.871Z,-0.35
2019-01-21T18:58:56.651Z,-0.30
2019-01-21T19:01:26.547Z,-0.22
2019-01-21T19:03:56.354Z,-0.23
2019-01-21T19:06:27.279Z,-0.18
2019-01-21T19:08:57.165Z,-0.10
2019-01-21T19:11:28.282Z,-0.31
2019-01-21T19:13:57.904Z,-0.34
2019-01-21T19:16:27.780Z,-0.20
2019-01-21T19:18:57.497Z,-0.17
2019-01-21T19:21:27.465Z,-0.16
2019-01-21T19:23:57.220Z,-0.19
2019-01-21T19:26:26.854Z,-0.15
2019-01-21T19:28:56.607Z,-0.19
2019-01-21T19:31:26.255Z,-0.34
2019-01-21T19:33:55.860Z,-0.57
2019-01-21T19:36:25.744Z,-0.32
2019-01-21T19:38:55.288Z,-0.34
2019-01-21T19:41:25.033Z,-0.44
2019-01-21T19:43:54.536Z,-0.40
2019-01-21T19:46:24.258Z,-0.41
2019-01-21T19:48:53.937Z,-0.28
2019-01-21T19:51:23.612Z,-0.31
2019-01-21T19:53:53.377Z,-0.46
2019-01-21T19:56:23.211Z,-0.47
2019-01-21T19:58:52.800Z,-0.62
2019-01-21T20:01:22.528Z,-0.60
2019-01-21T20:03:54.023Z,-0.61
2019-01-21T20:06:23.803Z,-0.57
2019-01-21T20:08:53.534Z,-0.58
2019-01-21T20:11:23.512Z,-0.68
2019-01-21T20:13:53.314Z,-0.66
2019-01-21T20:16:24.385Z,-0.71
2019-01-21T20:18:54.379Z,-0.81
2019-01-21T20:21:25.167Z,-0.92
2019-01-21T20:23:55.035Z,-0.75
2019-01-21T20:26:24.677Z,-0.88
2019-01-21T20:28:54.709Z,-0.90
2019-01-21T20:31:24.421Z,-0.77
2019-01-21T20:33:54.236Z,-0.75
2019-01-21T20:36:24.429Z,-0.75
2019-01-21T20:38:54.179Z,-0.69
2019-01-21T20:41:23.840Z,-0.81
2019-01-21T20:43:53.889Z,-0.84
2019-01-21T20:46:23.795Z,-0.90
2019-01-21T20:48:53.468Z,-1.00
2019-01-21T20:51:23.046Z,-1.01
2019-01-21T20:53:52.805Z,-0.99
2019-01-21T20:56:22.764Z,-0.92
2019-01-21T20:58:52.391Z,-1.11
2019-01-21T21:01:22.207Z,-1.20
2019-01-21T21:03:53.121Z,-1.26
2019-01-21T21:06:22.651Z,-1.31
2019-01-21T21:08:52.497Z,-1.38
2019-01-21T21:11:22.059Z,-1.38
2019-01-21T21:13:52.290Z,-1.43
2019-01-21T21:16:21.922Z,-1.47
2019-01-21T21:18:51.858Z,-1.58
2019-01-21T21:21:21.570Z,-1.56
2019-01-21T21:23:51.189Z,-1.69
2019-01-21T21:26:20.744Z,-1.51
2019-01-21T21:28:50.632Z,-1.73
2019-01-21T21:31:20.628Z,-1.59
2019-01-21T21:33:50.254Z,-1.80
2019-01-21T21:36:19.785Z,-1.82
2019-01-21T21:38:49.620Z,-1.88
2019-01-21T21:41:19.449Z,-1.76
2019-01-21T21:43:49.092Z,-1.94
2019-01-21T21:46:18.738Z,-1.92
2019-01-21T21:48:48.342Z,-1.69
2019-01-21T21:51:18.556Z,-2.04
2019-01-21T21:53:48.202Z,-1.90
2019-01-21T21:56:18.096Z,-1.93
2019-01-21T21:58:47.641Z,-1.94
2019-01-21T22:01:24.049Z,-1.89
2019-01-21T22:03:52.463Z,-1.95
2019-01-21T22:06:22.070Z,-1.87
2019-01-21T22:08:51.726Z,-1.99
2019-01-21T22:11:21.462Z,-2.00
2019-01-21T22:13:51.624Z,-1.92
2019-01-21T22:16:21.237Z,-1.89
2019-01-21T22:18:50.867Z,-2.11
2019-01-21T22:21:20.681Z,-2.08
2019-01-21T22:23:50.300Z,-2.08
2019-01-21T22:26:20.354Z,-1.91
2019-01-21T22:28:49.974Z,-2.06
2019-01-21T22:31:19.744Z,-1.88
2019-01-21T22:33:49.680Z,-1.99
2019-01-21T22:36:19.566Z,-2.02
2019-01-21T22:38:49.138Z,-2.07
2019-01-21T22:41:19.214Z,-2.07
2019-01-21T22:43:49.293Z,-2.06
2019-01-21T22:46:19.746Z,-1.99
2019-01-21T22:48:49.810Z,-1.97
2019-01-21T22:51:20.492Z,-2.05
2019-01-21T22:53:50.324Z,-2.17
2019-01-21T22:56:20.378Z,-2.16
2019-01-21T22:58:50.023Z,-2.27
2019-01-21T23:01:23.818Z,-2.15
2019-01-21T23:03:53.753Z,-2.15
2019-01-21T23:06:23.789Z,-2.27
2019-01-21T23:08:53.791Z,-2.32
2019-01-21T23:11:23.524Z,-2.30
2019-01-21T23:13:53.202Z,-2.35
2019-01-21T23:16:22.965Z,-2.28
2019-01-21T23:18:52.922Z,-2.31
2019-01-21T23:21:22.805Z,-2.37
2019-01-21T23:23:52.718Z,-2.33
2019-01-21T23:26:22.303Z,-2.37
2019-01-21T23:28:52.102Z,-2.45
2019-01-21T23:31:21.802Z,-2.53
2019-01-21T23:33:51.359Z,-2.51
2019-01-21T23:36:21.375Z,-2.47
2019-01-21T23:38:51.148Z,-2.29
2019-01-21T23:41:21.274Z,-2.35
2019-01-21T23:43:50.877Z,-2.38
2019-01-21T23:46:20.547Z,-2.28
2019-01-21T23:48:50.149Z,-2.47
2019-01-21T23:51:20.158Z,-2.45
2019-01-21T23:53:50.055Z,-2.53
2019-01-21T23:56:19.664Z,-2.52
2019-01-21T23:58:49.254Z,-2.59
